Greenwood Leflore Airport
KGWO : now visible

Airfield :











YOU CAN JOIN US ON...

 
LOGIN :

Register | Disclaimer

   EN    FR    IT 

 









Legend :    VFR   Marginal VFR   IFR   Intensive IFR   Very Intensive IFR
Visi :
Ceiling :
>= 8 km
>= 3000ft
5 to 8 km
1000 to 3000 ft
1500m to 5 km
500 to 1000 ft
800 to 1500m
200 to 500 ft
< 800m
< 200 ft
Symbols :   Thunderstorms  Fog  Heavy snow  Heavy precipitations  Wind > 20 kt






- Airport Elevation : 162 ft


KGWO - Greenwood Leflore

CURRENT METAR :
  • 260853Z AUTO 08005KT 10SM OVC080 07/03 A3011 RMK AO2 SLP196 T00670033 58003

EXPIRED METARs :
  • 260753Z AUTO 11003KT 10SM OVC085 06/04 A3011 RMK AO2 SLP197 T00610039
  • 260653Z AUTO 00000KT 10SM OVC085 06/03 A3013 RMK AO2 SLP204 T00610033

TAF KGWO
Valid from the 26 at 06:00 until the 27 at 06:00 UTC


260551Z 2606/2706 16003KT P6SM VCSH OVC100
FM261500 17005KT P6SM VCSH BKN060
FM261800 19007KT 6SM -RA BKN015 OVC025
FM262100 16005KT 4SM -RA OVC007
FM270200 VRB03KT 6SM -DZ BR OVC003



MET'MAP, your aeronautical weather chart ! - Copyright ORBIFLY December 2007 - Disclaimer

ORBIFLY MET'MAP TEAM :

Programming & Development : Alexandra Zaïnal
Concept & original design : Baudouin d'Aumeries
Assistance for programming : Marc-Olivier Méhu
Technical & hardware support : Manuel Goepfert

Contact : metmap@orbifly.com




SOURCES & CREDITS :

   NOAA       Earth
Advisory